sensor_id;sensor_type;location;lat;lon;timestamp;P1;durP1;ratioP1;P2;durP2;ratioP2
55220;SDS011;41089;51.448;6.604;2023-04-03T00:04:37;8.73;;;5.10;;
55220;SDS011;41089;51.448;6.604;2023-04-03T00:10:37;9.48;;;6.53;;
55220;SDS011;41089;51.448;6.604;2023-04-03T00:16:38;8.52;;;6.40;;
55220;SDS011;41089;51.448;6.604;2023-04-03T00:22:38;9.32;;;5.55;;
55220;SDS011;41089;51.448;6.604;2023-04-03T00:28:38;5.53;;;4.82;;
55220;SDS011;41089;51.448;6.604;2023-04-03T00:34:39;7.27;;;5.47;;
55220;SDS011;41089;51.448;6.604;2023-04-03T00:40:41;10.30;;;6.50;;
55220;SDS011;41089;51.448;6.604;2023-04-03T00:46:43;6.80;;;5.25;;
55220;SDS011;41089;51.448;6.604;2023-04-03T00:52:46;7.95;;;6.07;;
55220;SDS011;41089;51.448;6.604;2023-04-03T00:58:57;9.75;;;5.55;;
55220;SDS011;41089;51.448;6.604;2023-04-03T01:04:59;9.07;;;5.93;;
55220;SDS011;41089;51.448;6.604;2023-04-03T01:11:00;7.43;;;5.65;;
55220;SDS011;41089;51.448;6.604;2023-04-03T01:17:00;7.78;;;5.97;;
55220;SDS011;41089;51.448;6.604;2023-04-03T01:29:05;8.88;;;5.68;;
55220;SDS011;41089;51.448;6.604;2023-04-03T01:35:07;8.23;;;5.55;;
55220;SDS011;41089;51.448;6.604;2023-04-03T01:41:09;10.02;;;5.32;;
55220;SDS011;41089;51.448;6.604;2023-04-03T01:47:09;6.97;;;4.60;;
55220;SDS011;41089;51.448;6.604;2023-04-03T01:53:10;6.88;;;4.60;;
55220;SDS011;41089;51.448;6.604;2023-04-03T01:59:10;8.50;;;3.65;;
55220;SDS011;41089;51.448;6.604;2023-04-03T02:05:10;5.90;;;2.92;;
55220;SDS011;41089;51.448;6.604;2023-04-03T02:11:12;5.85;;;2.83;;
55220;SDS011;41089;51.448;6.604;2023-04-03T02:17:12;6.15;;;3.25;;
55220;SDS011;41089;51.448;6.604;2023-04-03T02:23:12;6.33;;;2.53;;
55220;SDS011;41089;51.448;6.604;2023-04-03T02:29:13;7.38;;;3.70;;
55220;SDS011;41089;51.448;6.604;2023-04-03T02:35:13;6.03;;;2.75;;
55220;SDS011;41089;51.448;6.604;2023-04-03T02:41:14;5.70;;;2.28;;
55220;SDS011;41089;51.448;6.604;2023-04-03T02:47:16;7.57;;;2.65;;
55220;SDS011;41089;51.448;6.604;2023-04-03T02:53:16;4.30;;;2.50;;
55220;SDS011;41089;51.448;6.604;2023-04-03T02:59:17;9.75;;;3.78;;
55220;SDS011;41089;51.448;6.604;2023-04-03T03:05:17;5.70;;;2.15;;
55220;SDS011;41089;51.448;6.604;2023-04-03T03:11:18;5.43;;;2.53;;
55220;SDS011;41089;51.448;6.604;2023-04-03T03:17:18;5.27;;;2.27;;
55220;SDS011;41089;51.448;6.604;2023-04-03T03:23:19;6.03;;;3.10;;
55220;SDS011;41089;51.448;6.604;2023-04-03T03:29:19;6.97;;;2.58;;
55220;SDS011;41089;51.448;6.604;2023-04-03T03:35:20;4.07;;;2.03;;
55220;SDS011;41089;51.448;6.604;2023-04-03T03:41:20;7.10;;;2.25;;
55220;SDS011;41089;51.448;6.604;2023-04-03T03:47:21;6.20;;;2.20;;
55220;SDS011;41089;51.448;6.604;2023-04-03T03:53:21;3.70;;;2.10;;
55220;SDS011;41089;51.448;6.604;2023-04-03T03:59:21;11.88;;;2.72;;
55220;SDS011;41089;51.448;6.604;2023-04-03T04:05:22;6.82;;;2.03;;
55220;SDS011;41089;51.448;6.604;2023-04-03T04:11:22;4.78;;;2.50;;
55220;SDS011;41089;51.448;6.604;2023-04-03T04:17:23;8.60;;;3.35;;
55220;SDS011;41089;51.448;6.604;2023-04-03T04:23:23;4.22;;;2.00;;
55220;SDS011;41089;51.448;6.604;2023-04-03T04:29:24;10.07;;;2.72;;
55220;SDS011;41089;51.448;6.604;2023-04-03T04:35:24;4.65;;;2.10;;
55220;SDS011;41089;51.448;6.604;2023-04-03T04:41:25;7.13;;;2.28;;
55220;SDS011;41089;51.448;6.604;2023-04-03T04:47:26;8.80;;;2.53;;
55220;SDS011;41089;51.448;6.604;2023-04-03T04:53:28;7.07;;;3.08;;
55220;SDS011;41089;51.448;6.604;2023-04-03T04:59:29;8.43;;;2.22;;
55220;SDS011;41089;51.448;6.604;2023-04-03T05:05:29;7.10;;;2.60;;
55220;SDS011;41089;51.448;6.604;2023-04-03T05:11:29;9.23;;;2.67;;
55220;SDS011;41089;51.448;6.604;2023-04-03T05:17:30;6.95;;;2.75;;
55220;SDS011;41089;51.448;6.604;2023-04-03T05:23:31;8.57;;;2.80;;
55220;SDS011;41089;51.448;6.604;2023-04-03T05:29:31;6.18;;;2.53;;
55220;SDS011;41089;51.448;6.604;2023-04-03T05:35:31;6.55;;;3.08;;
55220;SDS011;41089;51.448;6.604;2023-04-03T05:41:32;8.68;;;2.60;;
55220;SDS011;41089;51.448;6.604;2023-04-03T05:47:32;8.93;;;2.67;;
55220;SDS011;41089;51.448;6.604;2023-04-03T05:53:34;6.43;;;2.13;;
55220;SDS011;41089;51.448;6.604;2023-04-03T05:59:36;7.03;;;2.45;;
55220;SDS011;41089;51.448;6.604;2023-04-03T06:05:37;9.57;;;3.03;;
55220;SDS011;41089;51.448;6.604;2023-04-03T06:11:37;6.43;;;2.72;;
55220;SDS011;41089;51.448;6.604;2023-04-03T06:17:38;4.72;;;2.50;;
55220;SDS011;41089;51.448;6.604;2023-04-03T06:23:39;6.78;;;2.60;;
55220;SDS011;41089;51.448;6.604;2023-04-03T06:29:40;7.85;;;2.38;;
55220;SDS011;41089;51.448;6.604;2023-04-03T06:35:40;6.50;;;2.73;;
55220;SDS011;41089;51.448;6.604;2023-04-03T06:41:41;9.32;;;3.03;;
55220;SDS011;41089;51.448;6.604;2023-04-03T06:47:42;6.07;;;2.88;;
55220;SDS011;41089;51.448;6.604;2023-04-03T06:53:43;5.22;;;3.28;;
55220;SDS011;41089;51.448;6.604;2023-04-03T06:59:43;7.88;;;2.80;;
55220;SDS011;41089;51.448;6.604;2023-04-03T07:05:44;9.35;;;3.20;;
55220;SDS011;41089;51.448;6.604;2023-04-03T07:11:44;5.93;;;2.88;;
55220;SDS011;41089;51.448;6.604;2023-04-03T07:17:45;6.78;;;2.88;;
55220;SDS011;41089;51.448;6.604;2023-04-03T07:23:46;11.00;;;3.20;;
55220;SDS011;41089;51.448;6.604;2023-04-03T07:29:46;8.97;;;2.93;;
55220;SDS011;41089;51.448;6.604;2023-04-03T07:35:48;6.97;;;3.13;;
55220;SDS011;41089;51.448;6.604;2023-04-03T07:41:48;8.47;;;2.70;;
55220;SDS011;41089;51.448;6.604;2023-04-03T07:47:49;6.63;;;2.90;;
55220;SDS011;41089;51.448;6.604;2023-04-03T07:53:50;7.93;;;3.00;;
55220;SDS011;41089;51.448;6.604;2023-04-03T07:59:50;5.90;;;3.00;;
55220;SDS011;41089;51.448;6.604;2023-04-03T08:05:51;4.72;;;2.35;;
55220;SDS011;41089;51.448;6.604;2023-04-03T08:11:53;5.63;;;2.42;;
55220;SDS011;41089;51.448;6.604;2023-04-03T08:17:53;7.57;;;2.70;;
55220;SDS011;41089;51.448;6.604;2023-04-03T08:23:54;7.00;;;2.60;;
55220;SDS011;41089;51.448;6.604;2023-04-03T08:29:55;4.47;;;1.70;;
55220;SDS011;41089;51.448;6.604;2023-04-03T08:35:56;3.47;;;1.50;;
55220;SDS011;41089;51.448;6.604;2023-04-03T08:41:57;5.80;;;2.08;;
55220;SDS011;41089;51.448;6.604;2023-04-03T08:48:06;7.50;;;1.85;;
55220;SDS011;41089;51.448;6.604;2023-04-03T08:54:15;6.28;;;2.00;;
55220;SDS011;41089;51.448;6.604;2023-04-03T09:00:25;2.58;;;1.65;;
55220;SDS011;41089;51.448;6.604;2023-04-03T09:06:31;7.35;;;2.38;;
55220;SDS011;41089;51.448;6.604;2023-04-03T09:12:46;6.30;;;1.90;;
55220;SDS011;41089;51.448;6.604;2023-04-03T09:18:53;4.18;;;1.83;;
55220;SDS011;41089;51.448;6.604;2023-04-03T09:31:00;6.13;;;1.85;;
55220;SDS011;41089;51.448;6.604;2023-04-03T09:37:03;4.32;;;1.30;;
55220;SDS011;41089;51.448;6.604;2023-04-03T09:43:19;3.72;;;1.50;;
55220;SDS011;41089;51.448;6.604;2023-04-03T09:49:26;6.28;;;2.05;;
55220;SDS011;41089;51.448;6.604;2023-04-03T09:55:27;6.70;;;2.33;;
55220;SDS011;41089;51.448;6.604;2023-04-03T10:01:39;2.85;;;1.13;;
55220;SDS011;41089;51.448;6.604;2023-04-03T10:07:42;1.33;;;1.02;;
55220;SDS011;41089;51.448;6.604;2023-04-03T10:13:49;3.40;;;1.48;;
55220;SDS011;41089;51.448;6.604;2023-04-03T10:20:23;2.05;;;1.10;;
55220;SDS011;41089;51.448;6.604;2023-04-03T10:33:05;3.03;;;1.33;;
55220;SDS011;41089;51.448;6.604;2023-04-03T10:45:32;2.45;;;1.30;;
55220;SDS011;41089;51.448;6.604;2023-04-03T10:51:57;3.15;;;1.55;;
55220;SDS011;41089;51.448;6.604;2023-04-03T10:58:24;4.00;;;1.33;;
55220;SDS011;41089;51.448;6.604;2023-04-03T11:04:29;2.22;;;0.98;;
55220;SDS011;41089;51.448;6.604;2023-04-03T11:10:36;4.30;;;1.25;;
55220;SDS011;41089;51.448;6.604;2023-04-03T11:16:41;3.92;;;1.10;;
55220;SDS011;41089;51.448;6.604;2023-04-03T11:22:50;3.30;;;1.48;;
55220;SDS011;41089;51.448;6.604;2023-04-03T11:29:08;6.40;;;1.45;;
55220;SDS011;41089;51.448;6.604;2023-04-03T11:35:14;3.40;;;1.67;;
55220;SDS011;41089;51.448;6.604;2023-04-03T11:41:15;3.22;;;1.45;;
55220;SDS011;41089;51.448;6.604;2023-04-03T11:54:34;6.15;;;1.45;;
55220;SDS011;41089;51.448;6.604;2023-04-03T12:07:15;5.68;;;1.95;;
55220;SDS011;41089;51.448;6.604;2023-04-03T12:13:18;4.53;;;2.05;;
55220;SDS011;41089;51.448;6.604;2023-04-03T12:19:35;3.90;;;1.80;;
55220;SDS011;41089;51.448;6.604;2023-04-03T12:25:47;7.35;;;1.67;;
55220;SDS011;41089;51.448;6.604;2023-04-03T12:31:56;3.05;;;1.40;;
55220;SDS011;41089;51.448;6.604;2023-04-03T12:44:38;4.95;;;1.40;;
55220;SDS011;41089;51.448;6.604;2023-04-03T12:50:56;2.50;;;1.20;;
55220;SDS011;41089;51.448;6.604;2023-04-03T12:57:15;4.13;;;1.50;;
55220;SDS011;41089;51.448;6.604;2023-04-03T13:03:24;3.30;;;1.27;;
55220;SDS011;41089;51.448;6.604;2023-04-03T13:09:30;3.78;;;1.27;;
55220;SDS011;41089;51.448;6.604;2023-04-03T13:15:46;6.82;;;1.30;;
55220;SDS011;41089;51.448;6.604;2023-04-03T13:21:49;3.90;;;1.35;;
55220;SDS011;41089;51.448;6.604;2023-04-03T13:27:52;3.42;;;1.58;;
55220;SDS011;41089;51.448;6.604;2023-04-03T13:40:18;4.25;;;1.50;;
55220;SDS011;41089;51.448;6.604;2023-04-03T13:52:23;3.40;;;1.85;;
55220;SDS011;41089;51.448;6.604;2023-04-03T13:58:35;3.08;;;1.50;;
55220;SDS011;41089;51.448;6.604;2023-04-03T14:04:45;3.53;;;1.73;;
55220;SDS011;41089;51.448;6.604;2023-04-03T14:10:49;2.75;;;1.45;;
55220;SDS011;41089;51.448;6.604;2023-04-03T14:16:52;4.07;;;1.67;;
55220;SDS011;41089;51.448;6.604;2023-04-03T14:22:54;3.55;;;1.20;;
55220;SDS011;41089;51.448;6.604;2023-04-03T14:28:54;4.60;;;1.67;;
55220;SDS011;41089;51.448;6.604;2023-04-03T14:34:55;2.53;;;1.65;;
55220;SDS011;41089;51.448;6.604;2023-04-03T14:40:58;5.00;;;1.77;;
55220;SDS011;41089;51.448;6.604;2023-04-03T14:46:58;4.97;;;1.50;;
55220;SDS011;41089;51.448;6.604;2023-04-03T14:52:59;3.72;;;1.65;;
55220;SDS011;41089;51.448;6.604;2023-04-03T14:59:00;4.15;;;1.50;;
55220;SDS011;41089;51.448;6.604;2023-04-03T15:05:16;3.97;;;1.30;;
55220;SDS011;41089;51.448;6.604;2023-04-03T15:11:17;5.45;;;1.40;;
55220;SDS011;41089;51.448;6.604;2023-04-03T15:17:20;5.65;;;1.67;;
55220;SDS011;41089;51.448;6.604;2023-04-03T15:23:22;6.32;;;2.78;;
55220;SDS011;41089;51.448;6.604;2023-04-03T15:29:26;2.90;;;1.45;;
55220;SDS011;41089;51.448;6.604;2023-04-03T15:35:27;7.05;;;1.90;;
55220;SDS011;41089;51.448;6.604;2023-04-03T15:41:27;2.08;;;1.35;;
55220;SDS011;41089;51.448;6.604;2023-04-03T15:47:27;2.03;;;1.50;;
55220;SDS011;41089;51.448;6.604;2023-04-03T15:53:28;5.70;;;1.90;;
55220;SDS011;41089;51.448;6.604;2023-04-03T15:59:28;7.35;;;2.88;;
55220;SDS011;41089;51.448;6.604;2023-04-03T16:05:30;3.30;;;1.52;;
55220;SDS011;41089;51.448;6.604;2023-04-03T16:11:31;5.13;;;1.92;;
55220;SDS011;41089;51.448;6.604;2023-04-03T16:17:32;3.17;;;1.80;;
55220;SDS011;41089;51.448;6.604;2023-04-03T16:23:34;4.82;;;2.03;;
55220;SDS011;41089;51.448;6.604;2023-04-03T16:29:35;4.35;;;1.65;;
55220;SDS011;41089;51.448;6.604;2023-04-03T16:35:36;3.45;;;1.55;;
55220;SDS011;41089;51.448;6.604;2023-04-03T16:41:36;3.22;;;1.70;;
55220;SDS011;41089;51.448;6.604;2023-04-03T16:47:37;3.88;;;1.58;;
55220;SDS011;41089;51.448;6.604;2023-04-03T16:53:38;2.92;;;1.67;;
55220;SDS011;41089;51.448;6.604;2023-04-03T16:59:38;4.30;;;2.00;;
55220;SDS011;41089;51.448;6.604;2023-04-03T17:05:38;4.43;;;1.80;;
55220;SDS011;41089;51.448;6.604;2023-04-03T17:11:39;5.93;;;2.33;;
55220;SDS011;41089;51.448;6.604;2023-04-03T17:17:39;5.30;;;3.33;;
55220;SDS011;41089;51.448;6.604;2023-04-03T17:23:41;6.53;;;1.97;;
55220;SDS011;41089;51.448;6.604;2023-04-03T17:29:43;2.47;;;2.00;;
55220;SDS011;41089;51.448;6.604;2023-04-03T17:35:43;6.20;;;2.03;;
55220;SDS011;41089;51.448;6.604;2023-04-03T17:41:43;4.70;;;2.80;;
55220;SDS011;41089;51.448;6.604;2023-04-03T17:47:45;6.50;;;1.92;;
55220;SDS011;41089;51.448;6.604;2023-04-03T17:53:46;3.65;;;1.80;;
55220;SDS011;41089;51.448;6.604;2023-04-03T17:59:47;7.32;;;2.40;;
55220;SDS011;41089;51.448;6.604;2023-04-03T18:05:47;5.68;;;2.95;;
55220;SDS011;41089;51.448;6.604;2023-04-03T18:11:49;3.70;;;2.50;;
55220;SDS011;41089;51.448;6.604;2023-04-03T18:17:51;3.63;;;2.00;;
55220;SDS011;41089;51.448;6.604;2023-04-03T18:23:55;4.88;;;1.98;;
55220;SDS011;41089;51.448;6.604;2023-04-03T18:29:57;3.97;;;3.00;;
55220;SDS011;41089;51.448;6.604;2023-04-03T18:36:00;4.72;;;1.98;;
55220;SDS011;41089;51.448;6.604;2023-04-03T18:42:07;5.03;;;2.33;;
55220;SDS011;41089;51.448;6.604;2023-04-03T18:48:10;4.50;;;2.00;;
55220;SDS011;41089;51.448;6.604;2023-04-03T18:54:10;5.57;;;3.17;;
55220;SDS011;41089;51.448;6.604;2023-04-03T19:00:12;3.50;;;2.10;;
55220;SDS011;41089;51.448;6.604;2023-04-03T19:06:13;6.35;;;1.95;;
55220;SDS011;41089;51.448;6.604;2023-04-03T19:12:14;3.83;;;2.08;;
55220;SDS011;41089;51.448;6.604;2023-04-03T19:18:14;3.93;;;2.13;;
55220;SDS011;41089;51.448;6.604;2023-04-03T19:24:15;3.90;;;2.22;;
55220;SDS011;41089;51.448;6.604;2023-04-03T19:30:15;3.97;;;2.22;;
55220;SDS011;41089;51.448;6.604;2023-04-03T19:36:16;4.20;;;2.92;;
55220;SDS011;41089;51.448;6.604;2023-04-03T19:42:18;6.38;;;3.05;;
55220;SDS011;41089;51.448;6.604;2023-04-03T19:48:19;4.53;;;2.28;;
55220;SDS011;41089;51.448;6.604;2023-04-03T19:54:20;7.68;;;2.55;;
55220;SDS011;41089;51.448;6.604;2023-04-03T20:00:21;3.67;;;2.30;;
55220;SDS011;41089;51.448;6.604;2023-04-03T20:06:21;5.78;;;2.10;;
55220;SDS011;41089;51.448;6.604;2023-04-03T20:12:22;7.40;;;2.83;;
55220;SDS011;41089;51.448;6.604;2023-04-03T20:18:22;8.10;;;2.10;;
55220;SDS011;41089;51.448;6.604;2023-04-03T20:24:23;7.20;;;2.60;;
55220;SDS011;41089;51.448;6.604;2023-04-03T20:30:23;3.22;;;2.00;;
55220;SDS011;41089;51.448;6.604;2023-04-03T20:36:23;6.47;;;2.28;;
55220;SDS011;41089;51.448;6.604;2023-04-03T20:42:27;5.38;;;2.67;;
55220;SDS011;41089;51.448;6.604;2023-04-03T20:48:28;3.87;;;2.33;;
55220;SDS011;41089;51.448;6.604;2023-04-03T20:54:30;5.55;;;2.17;;
55220;SDS011;41089;51.448;6.604;2023-04-03T21:00:31;5.63;;;2.38;;
55220;SDS011;41089;51.448;6.604;2023-04-03T21:19:49;7.68;;;2.40;;
55220;SDS011;41089;51.448;6.604;2023-04-03T21:25:52;6.05;;;2.25;;
55220;SDS011;41089;51.448;6.604;2023-04-03T21:31:53;9.10;;;2.07;;
55220;SDS011;41089;51.448;6.604;2023-04-03T21:37:56;4.88;;;2.10;;
55220;SDS011;41089;51.448;6.604;2023-04-03T21:43:56;7.03;;;2.58;;
55220;SDS011;41089;51.448;6.604;2023-04-03T21:49:57;4.33;;;2.67;;
55220;SDS011;41089;51.448;6.604;2023-04-03T21:55:58;9.10;;;2.78;;
55220;SDS011;41089;51.448;6.604;2023-04-03T22:02:01;5.53;;;3.15;;
55220;SDS011;41089;51.448;6.604;2023-04-03T22:08:01;7.03;;;2.50;;
55220;SDS011;41089;51.448;6.604;2023-04-03T22:14:03;6.35;;;2.63;;
55220;SDS011;41089;51.448;6.604;2023-04-03T22:20:04;5.50;;;3.03;;
55220;SDS011;41089;51.448;6.604;2023-04-03T22:26:09;5.70;;;2.65;;
55220;SDS011;41089;51.448;6.604;2023-04-03T22:32:10;8.18;;;2.63;;
55220;SDS011;41089;51.448;6.604;2023-04-03T22:38:12;7.00;;;2.63;;
55220;SDS011;41089;51.448;6.604;2023-04-03T22:44:13;5.18;;;2.63;;
55220;SDS011;41089;51.448;6.604;2023-04-03T22:50:16;8.38;;;2.72;;
55220;SDS011;41089;51.448;6.604;2023-04-03T22:56:17;4.20;;;2.53;;
55220;SDS011;41089;51.448;6.604;2023-04-03T23:02:17;4.70;;;2.60;;
55220;SDS011;41089;51.448;6.604;2023-04-03T23:08:18;6.72;;;2.67;;
55220;SDS011;41089;51.448;6.604;2023-04-03T23:14:18;7.80;;;2.93;;
55220;SDS011;41089;51.448;6.604;2023-04-03T23:20:21;6.65;;;2.72;;
55220;SDS011;41089;51.448;6.604;2023-04-03T23:26:21;6.03;;;3.40;;
55220;SDS011;41089;51.448;6.604;2023-04-03T23:32:22;6.18;;;3.35;;
55220;SDS011;41089;51.448;6.604;2023-04-03T23:38:23;4.60;;;3.03;;
55220;SDS011;41089;51.448;6.604;2023-04-03T23:44:23;6.10;;;2.83;;
55220;SDS011;41089;51.448;6.604;2023-04-03T23:50:24;6.15;;;3.05;;
55220;SDS011;41089;51.448;6.604;2023-04-03T23:56:25;5.45;;;2.92;;
